Terminal Aerodrome Forecast
Issued by NWS Cleveland, OH

Home | Current Version | Previous Version | Text Only | Print | Product List | Glossary On
Versions: 1 2 3 4 5 6 7 8 9 10 11 12 13 14 15
000
FTUS41 KCLE 300023 AAA
TAFMFD
TAF AMD
KMFD 300023Z 3000/3024 19005KT P6SM SCT080 BKN150
     FM300200 14004KT P6SM VCSH BKN070 OVC100
      TEMPO 3003/3006 VRB05KT 5SM -SHRA BKN060 OVC100
     FM300800 18005KT 6SM BR VCSH BKN060 OVC080
     FM301400 25005KT P6SM VCSH BKN060 OVC080
     FM302200 22005KT P6SM SCT060 BKN200=

USA.gov is the U.S. government's official web portal to all federal, state and local government web resources and services.